createdAt,value
2023-04-27T00:03:08.098Z,4.63
2023-04-27T00:08:27.512Z,4.56
2023-04-27T00:13:46.791Z,4.48
2023-04-27T00:19:06.137Z,4.44
2023-04-27T00:24:25.849Z,4.36
2023-04-27T00:29:45.478Z,4.32
2023-04-27T00:35:04.839Z,4.25
2023-04-27T00:40:24.568Z,4.21
2023-04-27T00:45:44.124Z,4.17
2023-04-27T00:51:03.583Z,4.13
2023-04-27T01:01:42.600Z,3.99
2023-04-27T01:07:02.121Z,3.98
2023-04-27T01:12:21.884Z,3.92
2023-04-27T01:17:40.912Z,3.88
2023-04-27T01:22:59.810Z,3.77
2023-04-27T01:33:38.198Z,3.64
2023-04-27T01:44:16.603Z,3.61
2023-04-27T01:49:36.311Z,3.55
2023-04-27T02:00:14.512Z,3.5
2023-04-27T02:05:34.012Z,3.44
2023-04-27T02:10:53.543Z,3.43
2023-04-27T02:16:12.414Z,3.34
2023-04-27T02:21:32.181Z,3.27
2023-04-27T02:26:51.755Z,3.33
2023-04-27T02:32:11.223Z,3.35
2023-04-27T02:37:30.543Z,3.33
2023-04-27T02:42:49.725Z,3.27
2023-04-27T02:48:08.946Z,3.21
2023-04-27T02:58:48.259Z,3.13
2023-04-27T03:04:07.359Z,3.06
2023-04-27T03:09:26.327Z,2.97
2023-04-27T03:14:45.487Z,2.9
2023-04-27T03:20:04.544Z,2.89
2023-04-27T03:25:24.281Z,2.85
2023-04-27T03:30:43.993Z,2.82
2023-04-27T03:36:03.032Z,2.77
2023-04-27T03:41:31.831Z,2.8
2023-04-27T03:46:42.511Z,2.89
2023-04-27T03:52:02.049Z,2.95
2023-04-27T03:57:21.617Z,2.9
2023-04-27T04:02:41.410Z,2.92
2023-04-27T04:08:00.401Z,3
2023-04-27T04:13:20.208Z,3.09
2023-04-27T04:23:59.275Z,3.28
2023-04-27T04:29:18.131Z,3.3
2023-04-27T04:34:37.105Z,3.44
2023-04-27T04:39:56.385Z,3.58
2023-04-27T04:45:15.715Z,3.68
2023-04-27T04:50:35.094Z,3.78
2023-04-27T04:55:54.824Z,3.88
2023-04-27T05:01:14.282Z,4.02
2023-04-27T05:06:33.669Z,4.13
2023-04-27T05:17:12.878Z,4.42
2023-04-27T05:22:32.708Z,4.66
2023-04-27T05:27:51.784Z,4.84
2023-04-27T05:33:10.786Z,4.92
2023-04-27T05:43:49.296Z,5.14
2023-04-27T05:49:08.910Z,5.3
2023-04-27T05:59:47.443Z,5.56
2023-04-27T06:05:06.389Z,5.65
2023-04-27T06:10:25.322Z,5.78
2023-04-27T06:15:44.537Z,5.86
2023-04-27T06:21:03.310Z,6.02
2023-04-27T06:26:22.180Z,6.13
2023-04-27T06:31:41.022Z,6.3
2023-04-27T06:42:19.627Z,6.63
2023-04-27T06:47:38.682Z,6.8
2023-04-27T06:52:58.151Z,6.97
2023-04-27T06:58:17.138Z,7.18
2023-04-27T07:03:36.777Z,7.45
2023-04-27T07:08:55.599Z,7.77
2023-04-27T07:14:15.515Z,7.98
2023-04-27T07:24:53.469Z,8.64
2023-04-27T07:30:12.674Z,8.96
2023-04-27T07:35:32.398Z,9.37
2023-04-27T07:40:51.875Z,9.64
2023-04-27T07:46:10.769Z,10.1
2023-04-27T07:51:30.089Z,10.31
2023-04-27T07:56:49.104Z,10.54
2023-04-27T08:07:27.831Z,11.23
2023-04-27T08:12:46.816Z,11.99
2023-04-27T08:18:05.723Z,12.46
2023-04-27T08:23:25.288Z,12.65
2023-04-27T08:34:04.298Z,12.92
2023-04-27T08:39:23.775Z,13.57
2023-04-27T08:50:02.930Z,14.12
2023-04-27T08:55:21.876Z,14.61
2023-04-27T09:06:05.494Z,15.36
2023-04-27T09:11:20.207Z,15.44
2023-04-27T09:16:39.619Z,15.64
2023-04-27T09:21:58.776Z,15.78
2023-04-27T09:27:18.403Z,15.89
2023-04-27T09:32:37.605Z,16.08
2023-04-27T09:37:56.401Z,16.36
2023-04-27T09:48:34.496Z,16.87
2023-04-27T09:53:53.431Z,17.16
2023-04-27T09:59:13.165Z,17.07
2023-04-27T10:04:32.757Z,17.44
2023-04-27T10:09:51.859Z,17.61
2023-04-27T10:15:10.812Z,18.02
2023-04-27T10:20:29.971Z,18.16
2023-04-27T10:31:07.824Z,17.89
2023-04-27T10:36:27.176Z,17.42
2023-04-27T10:47:05.245Z,18.19
2023-04-27T10:52:24.800Z,18.36
2023-04-27T10:57:43.623Z,18.5
2023-04-27T11:03:02.689Z,18.4
2023-04-27T11:08:21.759Z,18.53
2023-04-27T11:13:40.962Z,18.81
2023-04-27T11:24:19.519Z,18.61
2023-04-27T11:29:38.421Z,18.21
2023-04-27T11:34:59.720Z,17.95
2023-04-27T11:40:16.776Z,17.98
2023-04-27T11:45:36.311Z,17.89
2023-04-27T11:50:54.902Z,18.12
2023-04-27T11:56:14.358Z,18.17
2023-04-27T12:01:37.893Z,17.87
2023-04-27T12:07:02.322Z,17.48
2023-04-27T12:17:31.814Z,17.54
2023-04-27T12:22:50.780Z,17.99
2023-04-27T12:28:09.646Z,18.29
2023-04-27T12:33:29.103Z,18.32
2023-04-27T12:38:48.058Z,18.17
2023-04-27T12:49:26.402Z,18.46
2023-04-27T12:54:45.604Z,18.54
2023-04-27T13:05:24.241Z,18.79
2023-04-27T13:10:43.357Z,18.93
2023-04-27T13:16:03.032Z,19.27
2023-04-27T13:21:22.182Z,19.54
2023-04-27T13:27:06.040Z,19.66
2023-04-27T13:32:25.571Z,19.48
2023-04-27T13:37:44.735Z,19.48
2023-04-27T13:43:03.739Z,19.51
2023-04-27T13:48:22.424Z,19.5
2023-04-27T13:53:41.600Z,19.31
2023-04-27T13:59:01.003Z,19.17
2023-04-27T14:04:19.953Z,19.23
2023-04-27T14:09:38.629Z,19.29
2023-04-27T14:20:16.614Z,19.2
2023-04-27T14:25:35.362Z,19.11
2023-04-27T14:30:54.692Z,18.95
2023-04-27T14:36:13.640Z,19
2023-04-27T14:41:33.105Z,19.08
2023-04-27T14:46:51.894Z,18.95
2023-04-27T14:52:10.738Z,18.66
2023-04-27T14:57:29.939Z,18.36
2023-04-27T15:02:49.217Z,18.42
2023-04-27T15:08:07.837Z,18.42
2023-04-27T15:18:46.023Z,18.29
2023-04-27T15:24:05.533Z,18.04
2023-04-27T15:29:24.229Z,17.98
2023-04-27T15:34:43.032Z,17.85
2023-04-27T15:40:02.159Z,17.7
2023-04-27T15:45:21.445Z,17.34
2023-04-27T15:50:40.301Z,17.2
2023-04-27T16:01:18.256Z,17.24
2023-04-27T16:06:37.716Z,17.23
2023-04-27T16:11:56.731Z,17.23
2023-04-27T16:17:15.488Z,16.94
2023-04-27T16:22:34.824Z,16.66
2023-04-27T16:27:54.239Z,16.36
2023-04-27T16:33:13.406Z,16.2
2023-04-27T16:38:32.490Z,16.04
2023-04-27T16:43:51.660Z,15.88
2023-04-27T16:49:11.146Z,15.78
2023-04-27T16:54:30.147Z,15.69
2023-04-27T16:59:49.339Z,15.59
2023-04-27T17:05:08.723Z,15.51
2023-04-27T17:10:28.131Z,15.41
2023-04-27T17:15:46.996Z,15.31
2023-04-27T17:26:24.821Z,15.02
2023-04-27T17:31:43.912Z,14.87
2023-04-27T17:37:03.398Z,14.72
2023-04-27T17:42:22.285Z,14.58
2023-04-27T17:47:41.499Z,14.38
2023-04-27T17:53:00.377Z,14.15
2023-04-27T17:58:19.516Z,13.97
2023-04-27T18:03:39.025Z,13.77
2023-04-27T18:08:58.390Z,13.58
2023-04-27T18:19:37.067Z,13.23
2023-04-27T18:24:56.094Z,13.07
2023-04-27T18:30:15.524Z,12.92
2023-04-27T18:35:34.750Z,12.73
2023-04-27T18:46:13.373Z,12.49
2023-04-27T18:51:32.407Z,12.38
2023-04-27T19:02:11.066Z,12.11
2023-04-27T19:07:30.501Z,11.95
2023-04-27T19:12:49.780Z,11.8
2023-04-27T19:18:10.753Z,11.66
2023-04-27T19:23:28.537Z,11.54
2023-04-27T19:28:47.671Z,11.41
2023-04-27T19:34:06.965Z,11.37
2023-04-27T19:39:26.223Z,11.33
2023-04-27T19:44:45.232Z,11.24
2023-04-27T19:50:04.473Z,11.2
2023-04-27T20:00:43.090Z,11.18
2023-04-27T20:11:21.834Z,11.05
2023-04-27T20:16:40.915Z,10.92
2023-04-27T20:22:01.602Z,10.92
2023-04-27T20:27:18.470Z,10.85
2023-04-27T20:32:37.712Z,10.73
2023-04-27T20:43:16.753Z,10.71
2023-04-27T20:48:35.577Z,10.62
2023-04-27T20:53:54.599Z,10.62
2023-04-27T20:59:23.976Z,10.52
2023-04-27T21:04:33.496Z,10.44
2023-04-27T21:09:52.362Z,10.35
2023-04-27T21:15:11.206Z,10.27
2023-04-27T21:20:30.551Z,10.24
2023-04-27T21:25:49.920Z,10.24
2023-04-27T21:31:08.853Z,10.25
2023-04-27T21:36:28.415Z,10.24
2023-04-27T21:41:47.930Z,10.25
2023-04-27T21:47:06.710Z,10.28
2023-04-27T21:52:25.980Z,10.28
2023-04-27T21:57:44.904Z,10.25
2023-04-27T22:03:04.044Z,10.22
2023-04-27T22:08:23.287Z,10.14
2023-04-27T22:13:42.191Z,10.01
2023-04-27T22:19:01.214Z,10.01
2023-04-27T22:24:20.338Z,9.97
2023-04-27T22:29:39.928Z,9.89
2023-04-27T22:34:58.846Z,9.85
2023-04-27T22:40:18.124Z,9.95
2023-04-27T22:50:56.413Z,9.97
2023-04-27T22:56:15.874Z,9.93
2023-04-27T23:01:34.686Z,9.95
2023-04-27T23:06:53.936Z,9.85
2023-04-27T23:12:13.705Z,9.83
2023-04-27T23:17:33.014Z,9.84
2023-04-27T23:22:52.134Z,9.84
2023-04-27T23:28:11.729Z,9.85
2023-04-27T23:33:31.385Z,9.8
2023-04-27T23:38:53.613Z,9.68
2023-04-27T23:44:10.631Z,9.6
2023-04-27T23:49:30.284Z,9.64
2023-04-27T23:54:49.381Z,9.6
